sensor_id;sensor_type;location;lat;lon;timestamp;temperature;humidity
5174;DHT22;2606;50.934;6.934;2023-03-25T00:00:20;11.10;99.90
5174;DHT22;2606;50.934;6.934;2023-03-25T00:02:48;11.00;99.90
5174;DHT22;2606;50.934;6.934;2023-03-25T00:05:16;11.00;99.90
5174;DHT22;2606;50.934;6.934;2023-03-25T00:07:43;10.90;99.90
5174;DHT22;2606;50.934;6.934;2023-03-25T00:10:10;10.90;99.90
5174;DHT22;2606;50.934;6.934;2023-03-25T00:12:40;10.80;99.90
5174;DHT22;2606;50.934;6.934;2023-03-25T00:15:07;10.80;99.90
5174;DHT22;2606;50.934;6.934;2023-03-25T00:17:36;10.70;99.90
5174;DHT22;2606;50.934;6.934;2023-03-25T00:20:06;10.80;99.90
5174;DHT22;2606;50.934;6.934;2023-03-25T00:22:41;10.70;99.90
5174;DHT22;2606;50.934;6.934;2023-03-25T00:25:10;10.60;99.90
5174;DHT22;2606;50.934;6.934;2023-03-25T00:27:40;10.70;99.90
5174;DHT22;2606;50.934;6.934;2023-03-25T00:30:08;10.70;99.90
5174;DHT22;2606;50.934;6.934;2023-03-25T00:32:44;10.70;99.90
5174;DHT22;2606;50.934;6.934;2023-03-25T00:35:20;10.70;99.90
5174;DHT22;2606;50.934;6.934;2023-03-25T00:37:51;10.60;99.90
5174;DHT22;2606;50.934;6.934;2023-03-25T00:40:22;10.60;99.90
5174;DHT22;2606;50.934;6.934;2023-03-25T00:42:47;10.50;99.90
5174;DHT22;2606;50.934;6.934;2023-03-25T00:45:15;10.60;99.90
5174;DHT22;2606;50.934;6.934;2023-03-25T00:47:43;10.60;99.90
5174;DHT22;2606;50.934;6.934;2023-03-25T00:50:09;10.60;99.90
5174;DHT22;2606;50.934;6.934;2023-03-25T00:52:42;10.60;99.90
5174;DHT22;2606;50.934;6.934;2023-03-25T00:55:08;10.60;99.90
5174;DHT22;2606;50.934;6.934;2023-03-25T00:57:34;10.60;99.90
5174;DHT22;2606;50.934;6.934;2023-03-25T01:00:09;10.60;99.90
5174;DHT22;2606;50.934;6.934;2023-03-25T01:02:35;10.60;99.90
5174;DHT22;2606;50.934;6.934;2023-03-25T01:05:05;10.50;99.90
5174;DHT22;2606;50.934;6.934;2023-03-25T01:07:31;10.60;99.90
5174;DHT22;2606;50.934;6.934;2023-03-25T01:10:00;10.60;99.90
5174;DHT22;2606;50.934;6.934;2023-03-25T01:12:26;10.70;99.90
5174;DHT22;2606;50.934;6.934;2023-03-25T01:14:53;10.60;99.90
5174;DHT22;2606;50.934;6.934;2023-03-25T01:17:18;10.60;99.90
5174;DHT22;2606;50.934;6.934;2023-03-25T01:19:44;10.60;99.90
5174;DHT22;2606;50.934;6.934;2023-03-25T01:22:10;10.60;99.90
5174;DHT22;2606;50.934;6.934;2023-03-25T01:24:36;10.60;99.90
5174;DHT22;2606;50.934;6.934;2023-03-25T01:27:02;10.60;99.90
5174;DHT22;2606;50.934;6.934;2023-03-25T01:29:28;10.60;99.90
5174;DHT22;2606;50.934;6.934;2023-03-25T01:31:54;10.60;99.90
5174;DHT22;2606;50.934;6.934;2023-03-25T01:34:20;10.70;99.90
5174;DHT22;2606;50.934;6.934;2023-03-25T01:36:45;10.60;99.90
5174;DHT22;2606;50.934;6.934;2023-03-25T01:39:12;10.60;99.90
5174;DHT22;2606;50.934;6.934;2023-03-25T01:41:42;10.60;99.90
5174;DHT22;2606;50.934;6.934;2023-03-25T01:46:47;10.60;99.90
5174;DHT22;2606;50.934;6.934;2023-03-25T01:49:16;10.60;99.90
5174;DHT22;2606;50.934;6.934;2023-03-25T01:51:47;10.60;99.90
5174;DHT22;2606;50.934;6.934;2023-03-25T01:54:14;10.60;99.90
5174;DHT22;2606;50.934;6.934;2023-03-25T01:56:45;10.50;99.90
5174;DHT22;2606;50.934;6.934;2023-03-25T01:59:13;10.60;99.90
5174;DHT22;2606;50.934;6.934;2023-03-25T02:01:40;10.50;99.90
5174;DHT22;2606;50.934;6.934;2023-03-25T02:04:06;10.50;99.90
5174;DHT22;2606;50.934;6.934;2023-03-25T02:06:44;10.50;99.90
5174;DHT22;2606;50.934;6.934;2023-03-25T02:09:12;10.50;99.90
5174;DHT22;2606;50.934;6.934;2023-03-25T02:11:39;10.40;99.90
5174;DHT22;2606;50.934;6.934;2023-03-25T02:14:29;10.40;99.90
5174;DHT22;2606;50.934;6.934;2023-03-25T02:20:33;10.30;99.90
5174;DHT22;2606;50.934;6.934;2023-03-25T02:32:24;10.30;99.90
5174;DHT22;2606;50.934;6.934;2023-03-25T02:41:00;10.10;99.90
5174;DHT22;2606;50.934;6.934;2023-03-25T02:43:44;10.00;99.90
5174;DHT22;2606;50.934;6.934;2023-03-25T02:46:14;9.90;99.90
5174;DHT22;2606;50.934;6.934;2023-03-25T02:49:04;9.90;99.90
5174;DHT22;2606;50.934;6.934;2023-03-25T02:51:43;9.80;99.90
5174;DHT22;2606;50.934;6.934;2023-03-25T02:54:13;9.80;99.90
5174;DHT22;2606;50.934;6.934;2023-03-25T02:56:40;9.80;99.90
5174;DHT22;2606;50.934;6.934;2023-03-25T02:59:09;9.80;99.90
5174;DHT22;2606;50.934;6.934;2023-03-25T03:01:39;9.80;99.90
5174;DHT22;2606;50.934;6.934;2023-03-25T03:04:05;9.70;99.90
5174;DHT22;2606;50.934;6.934;2023-03-25T03:06:35;9.80;99.90
5174;DHT22;2606;50.934;6.934;2023-03-25T03:09:45;9.70;99.90
5174;DHT22;2606;50.934;6.934;2023-03-25T03:12:30;9.80;99.90
5174;DHT22;2606;50.934;6.934;2023-03-25T03:15:16;9.80;99.90
5174;DHT22;2606;50.934;6.934;2023-03-25T03:18:18;9.80;99.90
5174;DHT22;2606;50.934;6.934;2023-03-25T03:23:55;9.80;99.90
5174;DHT22;2606;50.934;6.934;2023-03-25T03:29:11;9.70;99.90
5174;DHT22;2606;50.934;6.934;2023-03-25T03:31:51;9.70;99.90
5174;DHT22;2606;50.934;6.934;2023-03-25T03:34:26;9.70;99.90
5174;DHT22;2606;50.934;6.934;2023-03-25T03:36:57;9.70;99.90
5174;DHT22;2606;50.934;6.934;2023-03-25T03:39:42;9.70;99.90
5174;DHT22;2606;50.934;6.934;2023-03-25T03:44:46;9.70;99.90
5174;DHT22;2606;50.934;6.934;2023-03-25T03:47:19;9.70;99.90
5174;DHT22;2606;50.934;6.934;2023-03-25T03:49:50;9.70;99.90
5174;DHT22;2606;50.934;6.934;2023-03-25T03:52:21;9.70;99.90
5174;DHT22;2606;50.934;6.934;2023-03-25T03:55:03;9.70;99.90
5174;DHT22;2606;50.934;6.934;2023-03-25T03:57:34;9.60;99.90
5174;DHT22;2606;50.934;6.934;2023-03-25T04:00:15;9.60;99.90
5174;DHT22;2606;50.934;6.934;2023-03-25T04:02:53;9.60;99.90
5174;DHT22;2606;50.934;6.934;2023-03-25T04:05:22;9.60;99.90
5174;DHT22;2606;50.934;6.934;2023-03-25T04:11:10;9.60;99.90
5174;DHT22;2606;50.934;6.934;2023-03-25T04:13:41;9.60;99.90
5174;DHT22;2606;50.934;6.934;2023-03-25T04:16:08;9.50;99.90
5174;DHT22;2606;50.934;6.934;2023-03-25T04:18:34;9.60;99.90
5174;DHT22;2606;50.934;6.934;2023-03-25T04:21:00;9.60;99.90
5174;DHT22;2606;50.934;6.934;2023-03-25T04:23:26;9.60;99.90
5174;DHT22;2606;50.934;6.934;2023-03-25T04:25:55;9.50;99.90
5174;DHT22;2606;50.934;6.934;2023-03-25T04:28:21;9.50;99.90
5174;DHT22;2606;50.934;6.934;2023-03-25T04:30:48;9.60;99.90
5174;DHT22;2606;50.934;6.934;2023-03-25T04:33:23;9.70;99.90
5174;DHT22;2606;50.934;6.934;2023-03-25T04:35:49;9.60;99.90
5174;DHT22;2606;50.934;6.934;2023-03-25T04:38:18;9.50;99.90
5174;DHT22;2606;50.934;6.934;2023-03-25T04:40:47;9.60;99.90
5174;DHT22;2606;50.934;6.934;2023-03-25T04:43:13;9.60;99.90
5174;DHT22;2606;50.934;6.934;2023-03-25T04:45:39;9.60;99.90
5174;DHT22;2606;50.934;6.934;2023-03-25T04:48:30;9.60;99.90
5174;DHT22;2606;50.934;6.934;2023-03-25T04:50:59;9.60;99.90
5174;DHT22;2606;50.934;6.934;2023-03-25T04:53:26;9.60;99.90
5174;DHT22;2606;50.934;6.934;2023-03-25T04:55:52;9.60;99.90
5174;DHT22;2606;50.934;6.934;2023-03-25T04:58:18;9.60;99.90
5174;DHT22;2606;50.934;6.934;2023-03-25T05:00:47;9.60;99.90
5174;DHT22;2606;50.934;6.934;2023-03-25T05:03:14;9.60;99.90
5174;DHT22;2606;50.934;6.934;2023-03-25T05:05:40;9.60;99.90
5174;DHT22;2606;50.934;6.934;2023-03-25T05:08:06;9.70;99.90
5174;DHT22;2606;50.934;6.934;2023-03-25T05:10:32;9.70;99.90
5174;DHT22;2606;50.934;6.934;2023-03-25T05:13:05;9.70;99.90
5174;DHT22;2606;50.934;6.934;2023-03-25T05:15:32;9.70;99.90
5174;DHT22;2606;50.934;6.934;2023-03-25T05:18:13;9.80;99.90
5174;DHT22;2606;50.934;6.934;2023-03-25T05:20:41;9.80;99.90
5174;DHT22;2606;50.934;6.934;2023-03-25T05:23:11;9.70;99.90
5174;DHT22;2606;50.934;6.934;2023-03-25T05:25:43;9.80;99.90
5174;DHT22;2606;50.934;6.934;2023-03-25T05:28:12;9.80;99.90
5174;DHT22;2606;50.934;6.934;2023-03-25T05:30:45;9.80;99.90
5174;DHT22;2606;50.934;6.934;2023-03-25T05:33:13;9.80;99.90
5174;DHT22;2606;50.934;6.934;2023-03-25T05:35:43;9.80;99.90
5174;DHT22;2606;50.934;6.934;2023-03-25T05:38:10;9.80;99.90
5174;DHT22;2606;50.934;6.934;2023-03-25T05:40:47;9.80;99.90
5174;DHT22;2606;50.934;6.934;2023-03-25T05:43:14;9.80;99.90
5174;DHT22;2606;50.934;6.934;2023-03-25T05:45:42;9.80;99.90
5174;DHT22;2606;50.934;6.934;2023-03-25T05:48:09;9.80;99.90
5174;DHT22;2606;50.934;6.934;2023-03-25T05:50:36;9.80;99.90
5174;DHT22;2606;50.934;6.934;2023-03-25T05:53:03;9.80;99.90
5174;DHT22;2606;50.934;6.934;2023-03-25T05:55:29;9.80;99.90
5174;DHT22;2606;50.934;6.934;2023-03-25T05:57:54;9.90;99.90
5174;DHT22;2606;50.934;6.934;2023-03-25T06:00:21;9.90;99.90
5174;DHT22;2606;50.934;6.934;2023-03-25T06:02:57;9.90;99.90
5174;DHT22;2606;50.934;6.934;2023-03-25T06:05:24;9.90;99.90
5174;DHT22;2606;50.934;6.934;2023-03-25T06:07:50;9.90;99.90
5174;DHT22;2606;50.934;6.934;2023-03-25T06:10:21;9.90;99.90
5174;DHT22;2606;50.934;6.934;2023-03-25T06:12:47;9.90;99.90
5174;DHT22;2606;50.934;6.934;2023-03-25T06:15:16;9.90;99.90
5174;DHT22;2606;50.934;6.934;2023-03-25T06:17:55;9.90;99.90
5174;DHT22;2606;50.934;6.934;2023-03-25T06:20:20;9.80;99.90
5174;DHT22;2606;50.934;6.934;2023-03-25T06:22:46;9.90;99.90
5174;DHT22;2606;50.934;6.934;2023-03-25T06:25:15;10.00;99.90
5174;DHT22;2606;50.934;6.934;2023-03-25T06:27:47;10.00;99.90
5174;DHT22;2606;50.934;6.934;2023-03-25T06:30:18;10.00;99.90
5174;DHT22;2606;50.934;6.934;2023-03-25T06:32:44;10.00;99.90
5174;DHT22;2606;50.934;6.934;2023-03-25T06:35:16;10.00;99.90
5174;DHT22;2606;50.934;6.934;2023-03-25T06:37:45;10.00;99.90
5174;DHT22;2606;50.934;6.934;2023-03-25T06:40:12;10.00;99.90
5174;DHT22;2606;50.934;6.934;2023-03-25T06:42:41;10.00;99.90
5174;DHT22;2606;50.934;6.934;2023-03-25T06:45:07;10.10;99.90
5174;DHT22;2606;50.934;6.934;2023-03-25T06:47:33;10.10;99.90
5174;DHT22;2606;50.934;6.934;2023-03-25T06:49:59;10.10;99.90
5174;DHT22;2606;50.934;6.934;2023-03-25T06:52:24;10.20;99.90
5174;DHT22;2606;50.934;6.934;2023-03-25T06:54:50;10.20;99.90
5174;DHT22;2606;50.934;6.934;2023-03-25T06:57:16;10.20;99.90
5174;DHT22;2606;50.934;6.934;2023-03-25T06:59:41;10.30;99.90
5174;DHT22;2606;50.934;6.934;2023-03-25T07:02:08;10.30;99.90
5174;DHT22;2606;50.934;6.934;2023-03-25T07:04:35;10.30;99.90
5174;DHT22;2606;50.934;6.934;2023-03-25T07:07:00;10.30;99.90
5174;DHT22;2606;50.934;6.934;2023-03-25T07:09:26;10.20;99.90
5174;DHT22;2606;50.934;6.934;2023-03-25T07:11:54;10.10;99.90
5174;DHT22;2606;50.934;6.934;2023-03-25T07:14:20;10.10;99.90
5174;DHT22;2606;50.934;6.934;2023-03-25T07:16:45;10.10;99.90
5174;DHT22;2606;50.934;6.934;2023-03-25T07:19:11;10.00;99.90
5174;DHT22;2606;50.934;6.934;2023-03-25T07:21:37;10.00;99.90
5174;DHT22;2606;50.934;6.934;2023-03-25T07:24:03;10.00;99.90
5174;DHT22;2606;50.934;6.934;2023-03-25T07:26:31;10.00;99.90
5174;DHT22;2606;50.934;6.934;2023-03-25T07:28:57;9.90;99.90
5174;DHT22;2606;50.934;6.934;2023-03-25T07:31:23;10.00;99.90
5174;DHT22;2606;50.934;6.934;2023-03-25T07:33:51;10.00;99.90
5174;DHT22;2606;50.934;6.934;2023-03-25T07:36:17;10.00;99.90
5174;DHT22;2606;50.934;6.934;2023-03-25T07:38:43;10.00;99.90
5174;DHT22;2606;50.934;6.934;2023-03-25T07:41:11;10.00;99.90
5174;DHT22;2606;50.934;6.934;2023-03-25T07:43:37;10.10;99.90
5174;DHT22;2606;50.934;6.934;2023-03-25T07:46:04;10.00;99.90
5174;DHT22;2606;50.934;6.934;2023-03-25T07:48:30;10.00;99.90
5174;DHT22;2606;50.934;6.934;2023-03-25T07:50:59;10.00;99.90
5174;DHT22;2606;50.934;6.934;2023-03-25T07:53:24;10.00;99.90
5174;DHT22;2606;50.934;6.934;2023-03-25T07:55:50;10.00;99.90
5174;DHT22;2606;50.934;6.934;2023-03-25T07:58:17;10.00;99.90
5174;DHT22;2606;50.934;6.934;2023-03-25T08:00:43;10.10;99.90
5174;DHT22;2606;50.934;6.934;2023-03-25T08:03:13;10.10;99.90
5174;DHT22;2606;50.934;6.934;2023-03-25T08:05:44;10.10;99.90
5174;DHT22;2606;50.934;6.934;2023-03-25T08:08:12;10.10;99.90
5174;DHT22;2606;50.934;6.934;2023-03-25T08:10:38;10.10;99.90
5174;DHT22;2606;50.934;6.934;2023-03-25T08:13:03;10.10;99.90
5174;DHT22;2606;50.934;6.934;2023-03-25T08:15:29;10.00;99.90
5174;DHT22;2606;50.934;6.934;2023-03-25T08:17:54;10.00;99.90
5174;DHT22;2606;50.934;6.934;2023-03-25T08:20:20;10.00;99.90
5174;DHT22;2606;50.934;6.934;2023-03-25T08:22:46;10.00;99.90
5174;DHT22;2606;50.934;6.934;2023-03-25T08:25:12;10.10;99.90
5174;DHT22;2606;50.934;6.934;2023-03-25T08:27:44;10.10;99.90
5174;DHT22;2606;50.934;6.934;2023-03-25T08:30:10;10.20;99.90
5174;DHT22;2606;50.934;6.934;2023-03-25T08:32:42;10.20;99.90
5174;DHT22;2606;50.934;6.934;2023-03-25T08:35:11;10.30;99.90
5174;DHT22;2606;50.934;6.934;2023-03-25T08:37:40;10.40;99.90
5174;DHT22;2606;50.934;6.934;2023-03-25T08:40:06;10.50;99.90
5174;DHT22;2606;50.934;6.934;2023-03-25T08:42:34;10.60;99.90
5174;DHT22;2606;50.934;6.934;2023-03-25T08:45:00;10.60;99.90
5174;DHT22;2606;50.934;6.934;2023-03-25T08:47:28;10.70;99.90
5174;DHT22;2606;50.934;6.934;2023-03-25T08:49:57;10.60;99.90
5174;DHT22;2606;50.934;6.934;2023-03-25T08:52:23;10.70;99.90
5174;DHT22;2606;50.934;6.934;2023-03-25T08:54:48;10.60;99.90
5174;DHT22;2606;50.934;6.934;2023-03-25T08:57:14;10.70;99.90
5174;DHT22;2606;50.934;6.934;2023-03-25T08:59:42;10.70;99.90
5174;DHT22;2606;50.934;6.934;2023-03-25T09:02:10;10.60;99.90
5174;DHT22;2606;50.934;6.934;2023-03-25T09:04:36;10.70;99.90
5174;DHT22;2606;50.934;6.934;2023-03-25T09:07:04;10.70;99.90
5174;DHT22;2606;50.934;6.934;2023-03-25T09:09:30;10.70;99.90
5174;DHT22;2606;50.934;6.934;2023-03-25T09:11:55;10.60;99.90
5174;DHT22;2606;50.934;6.934;2023-03-25T09:14:21;10.70;99.90
5174;DHT22;2606;50.934;6.934;2023-03-25T09:16:46;10.60;99.90
5174;DHT22;2606;50.934;6.934;2023-03-25T09:19:12;10.70;99.90
5174;DHT22;2606;50.934;6.934;2023-03-25T09:21:38;10.70;99.90
5174;DHT22;2606;50.934;6.934;2023-03-25T09:24:03;10.80;99.90
5174;DHT22;2606;50.934;6.934;2023-03-25T09:26:29;10.70;99.90
5174;DHT22;2606;50.934;6.934;2023-03-25T09:28:55;10.80;99.90
5174;DHT22;2606;50.934;6.934;2023-03-25T09:31:22;10.80;99.90
5174;DHT22;2606;50.934;6.934;2023-03-25T09:33:50;10.80;99.90
5174;DHT22;2606;50.934;6.934;2023-03-25T09:36:16;10.90;99.90
5174;DHT22;2606;50.934;6.934;2023-03-25T09:38:42;10.90;99.90
5174;DHT22;2606;50.934;6.934;2023-03-25T09:46:27;11.00;99.90
5174;DHT22;2606;50.934;6.934;2023-03-25T09:48:53;11.00;99.90
5174;DHT22;2606;50.934;6.934;2023-03-25T09:51:28;11.00;99.90
5174;DHT22;2606;50.934;6.934;2023-03-25T09:54:03;11.10;99.90
5174;DHT22;2606;50.934;6.934;2023-03-25T09:56:36;11.10;99.90
5174;DHT22;2606;50.934;6.934;2023-03-25T09:59:19;11.20;99.90
5174;DHT22;2606;50.934;6.934;2023-03-25T10:10:12;11.40;99.90
5174;DHT22;2606;50.934;6.934;2023-03-25T10:13:08;11.40;99.90
5174;DHT22;2606;50.934;6.934;2023-03-25T10:15:58;11.40;99.90
5174;DHT22;2606;50.934;6.934;2023-03-25T10:18:46;11.40;99.90
5174;DHT22;2606;50.934;6.934;2023-03-25T10:21:22;11.40;99.90
5174;DHT22;2606;50.934;6.934;2023-03-25T10:24:17;11.40;99.90
5174;DHT22;2606;50.934;6.934;2023-03-25T10:26:49;11.40;99.90
5174;DHT22;2606;50.934;6.934;2023-03-25T10:29:53;11.50;99.90
5174;DHT22;2606;50.934;6.934;2023-03-25T10:32:17;11.50;99.90
5174;DHT22;2606;50.934;6.934;2023-03-25T10:34:50;11.50;99.90
5174;DHT22;2606;50.934;6.934;2023-03-25T10:37:29;11.60;99.90
5174;DHT22;2606;50.934;6.934;2023-03-25T10:40:02;11.80;99.90
5174;DHT22;2606;50.934;6.934;2023-03-25T10:45:37;12.40;99.90
5174;DHT22;2606;50.934;6.934;2023-03-25T10:48:25;12.70;99.90
5174;DHT22;2606;50.934;6.934;2023-03-25T10:51:08;13.00;99.90
5174;DHT22;2606;50.934;6.934;2023-03-25T10:53:35;13.10;99.90
5174;DHT22;2606;50.934;6.934;2023-03-25T10:56:16;13.20;99.90
5174;DHT22;2606;50.934;6.934;2023-03-25T10:58:47;13.20;99.80
5174;DHT22;2606;50.934;6.934;2023-03-25T11:01:16;13.10;99.60
5174;DHT22;2606;50.934;6.934;2023-03-25T11:04:03;13.00;99.50
5174;DHT22;2606;50.934;6.934;2023-03-25T11:06:35;12.90;99.90
5174;DHT22;2606;50.934;6.934;2023-03-25T11:09:38;12.70;99.90
5174;DHT22;2606;50.934;6.934;2023-03-25T11:12:21;12.50;99.90
5174;DHT22;2606;50.934;6.934;2023-03-25T11:14:54;12.50;99.90
5174;DHT22;2606;50.934;6.934;2023-03-25T11:17:25;12.70;99.90
5174;DHT22;2606;50.934;6.934;2023-03-25T11:22:41;12.80;99.90
5174;DHT22;2606;50.934;6.934;2023-03-25T11:25:22;12.90;99.90
5174;DHT22;2606;50.934;6.934;2023-03-25T11:28:01;12.90;99.90
5174;DHT22;2606;50.934;6.934;2023-03-25T11:30:27;13.20;99.90
5174;DHT22;2606;50.934;6.934;2023-03-25T11:33:06;13.30;99.90
5174;DHT22;2606;50.934;6.934;2023-03-25T11:35:37;13.30;99.60
5174;DHT22;2606;50.934;6.934;2023-03-25T11:38:19;13.40;99.40
5174;DHT22;2606;50.934;6.934;2023-03-25T11:40:54;13.40;98.50
5174;DHT22;2606;50.934;6.934;2023-03-25T11:43:22;13.30;98.30
5174;DHT22;2606;50.934;6.934;2023-03-25T11:45:48;13.30;98.50
5174;DHT22;2606;50.934;6.934;2023-03-25T11:48:18;13.30;98.50
5174;DHT22;2606;50.934;6.934;2023-03-25T11:50:49;13.40;98.20
5174;DHT22;2606;50.934;6.934;2023-03-25T11:53:25;13.50;98.10
5174;DHT22;2606;50.934;6.934;2023-03-25T11:56:05;13.50;97.20
5174;DHT22;2606;50.934;6.934;2023-03-25T11:58:34;13.70;97.70
5174;DHT22;2606;50.934;6.934;2023-03-25T12:01:06;13.80;96.90
5174;DHT22;2606;50.934;6.934;2023-03-25T12:03:43;13.80;96.90
5174;DHT22;2606;50.934;6.934;2023-03-25T12:06:18;13.70;96.90
5174;DHT22;2606;50.934;6.934;2023-03-25T12:20:22;13.30;97.40
5174;DHT22;2606;50.934;6.934;2023-03-25T12:23:09;13.20;96.70
5174;DHT22;2606;50.934;6.934;2023-03-25T12:26:16;13.20;97.20
5174;DHT22;2606;50.934;6.934;2023-03-25T12:28:57;13.20;97.60
5174;DHT22;2606;50.934;6.934;2023-03-25T12:35:06;13.40;96.80
5174;DHT22;2606;50.934;6.934;2023-03-25T12:40:41;13.60;95.90
5174;DHT22;2606;50.934;6.934;2023-03-25T12:43:17;13.70;95.80
5174;DHT22;2606;50.934;6.934;2023-03-25T12:46:04;13.70;95.40
5174;DHT22;2606;50.934;6.934;2023-03-25T12:51:36;13.90;95.00
5174;DHT22;2606;50.934;6.934;2023-03-25T13:00:25;14.30;94.50
5174;DHT22;2606;50.934;6.934;2023-03-25T13:03:18;14.40;93.00
5174;DHT22;2606;50.934;6.934;2023-03-25T13:14:06;14.30;94.10
5174;DHT22;2606;50.934;6.934;2023-03-25T13:16:35;14.40;95.20
5174;DHT22;2606;50.934;6.934;2023-03-25T13:19:15;14.50;94.60
5174;DHT22;2606;50.934;6.934;2023-03-25T13:22:02;14.70;93.70
5174;DHT22;2606;50.934;6.934;2023-03-25T13:24:37;14.60;93.20
5174;DHT22;2606;50.934;6.934;2023-03-25T13:27:04;14.60;94.20
5174;DHT22;2606;50.934;6.934;2023-03-25T13:29:40;14.60;93.60
5174;DHT22;2606;50.934;6.934;2023-03-25T13:32:18;14.60;93.30
5174;DHT22;2606;50.934;6.934;2023-03-25T13:34:51;14.60;93.10
5174;DHT22;2606;50.934;6.934;2023-03-25T13:37:24;14.50;93.60
5174;DHT22;2606;50.934;6.934;2023-03-25T13:39:56;14.40;92.80
5174;DHT22;2606;50.934;6.934;2023-03-25T13:42:36;14.30;94.00
5174;DHT22;2606;50.934;6.934;2023-03-25T13:45:13;14.30;94.10
5174;DHT22;2606;50.934;6.934;2023-03-25T13:48:33;14.20;94.10
5174;DHT22;2606;50.934;6.934;2023-03-25T13:50:40;14.10;97.10
5174;DHT22;2606;50.934;6.934;2023-03-25T13:53:15;13.50;98.90
5174;DHT22;2606;50.934;6.934;2023-03-25T13:55:54;13.20;99.90
5174;DHT22;2606;50.934;6.934;2023-03-25T13:58:45;12.90;99.90
5174;DHT22;2606;50.934;6.934;2023-03-25T14:13:18;11.50;99.90
5174;DHT22;2606;50.934;6.934;2023-03-25T14:16:02;11.30;99.90
5174;DHT22;2606;50.934;6.934;2023-03-25T14:18:30;11.30;99.90
5174;DHT22;2606;50.934;6.934;2023-03-25T14:20:58;11.40;99.90
5174;DHT22;2606;50.934;6.934;2023-03-25T14:23:43;11.40;99.90
5174;DHT22;2606;50.934;6.934;2023-03-25T14:26:10;11.30;99.90
5174;DHT22;2606;50.934;6.934;2023-03-25T14:28:38;11.40;99.90
5174;DHT22;2606;50.934;6.934;2023-03-25T14:39:42;11.60;99.90
5174;DHT22;2606;50.934;6.934;2023-03-25T14:45:37;11.60;99.90
5174;DHT22;2606;50.934;6.934;2023-03-25T14:48:16;11.60;99.90
5174;DHT22;2606;50.934;6.934;2023-03-25T14:51:08;11.60;99.90
5174;DHT22;2606;50.934;6.934;2023-03-25T14:53:35;11.70;99.90
5174;DHT22;2606;50.934;6.934;2023-03-25T14:56:07;11.80;99.90
5174;DHT22;2606;50.934;6.934;2023-03-25T14:58:42;11.90;99.90
5174;DHT22;2606;50.934;6.934;2023-03-25T15:01:13;12.00;99.90
5174;DHT22;2606;50.934;6.934;2023-03-25T15:03:43;12.00;99.90
5174;DHT22;2606;50.934;6.934;2023-03-25T15:06:39;12.10;99.90
5174;DHT22;2606;50.934;6.934;2023-03-25T15:09:10;12.10;99.90
5174;DHT22;2606;50.934;6.934;2023-03-25T15:11:40;12.10;99.90
5174;DHT22;2606;50.934;6.934;2023-03-25T15:14:14;12.10;99.90
5174;DHT22;2606;50.934;6.934;2023-03-25T15:19:20;12.00;99.90
5174;DHT22;2606;50.934;6.934;2023-03-25T15:24:39;12.00;99.90
5174;DHT22;2606;50.934;6.934;2023-03-25T15:30:16;12.00;99.90
5174;DHT22;2606;50.934;6.934;2023-03-25T15:49:16;12.00;99.90
5174;DHT22;2606;50.934;6.934;2023-03-25T15:52:00;11.90;99.90
5174;DHT22;2606;50.934;6.934;2023-03-25T15:54:35;12.00;99.90
5174;DHT22;2606;50.934;6.934;2023-03-25T15:57:34;12.00;99.90
5174;DHT22;2606;50.934;6.934;2023-03-25T16:00:23;12.10;99.90
5174;DHT22;2606;50.934;6.934;2023-03-25T16:03:22;12.10;99.90
5174;DHT22;2606;50.934;6.934;2023-03-25T16:05:53;12.10;99.90
5174;DHT22;2606;50.934;6.934;2023-03-25T16:08:45;12.20;99.90
5174;DHT22;2606;50.934;6.934;2023-03-25T16:14:04;12.10;99.90
5174;DHT22;2606;50.934;6.934;2023-03-25T16:16:31;12.10;99.90
5174;DHT22;2606;50.934;6.934;2023-03-25T16:19:01;12.20;99.90
5174;DHT22;2606;50.934;6.934;2023-03-25T16:21:29;12.10;99.90
5174;DHT22;2606;50.934;6.934;2023-03-25T16:24:00;12.20;99.90
5174;DHT22;2606;50.934;6.934;2023-03-25T16:26:37;12.40;99.90
5174;DHT22;2606;50.934;6.934;2023-03-25T16:31:55;12.50;99.90
5174;DHT22;2606;50.934;6.934;2023-03-25T16:34:22;12.40;99.90
5174;DHT22;2606;50.934;6.934;2023-03-25T16:36:50;12.40;99.90
5174;DHT22;2606;50.934;6.934;2023-03-25T16:39:17;12.30;99.90
5174;DHT22;2606;50.934;6.934;2023-03-25T16:41:48;12.20;99.90
5174;DHT22;2606;50.934;6.934;2023-03-25T16:44:16;12.10;99.90
5174;DHT22;2606;50.934;6.934;2023-03-25T16:46:54;12.10;99.90
5174;DHT22;2606;50.934;6.934;2023-03-25T16:49:36;12.00;99.90
5174;DHT22;2606;50.934;6.934;2023-03-25T16:52:25;12.00;99.90
5174;DHT22;2606;50.934;6.934;2023-03-25T16:57:28;12.10;99.90
5174;DHT22;2606;50.934;6.934;2023-03-25T16:59:55;12.20;99.70
5174;DHT22;2606;50.934;6.934;2023-03-25T17:02:27;12.30;99.80
5174;DHT22;2606;50.934;6.934;2023-03-25T17:04:53;12.20;99.90
5174;DHT22;2606;50.934;6.934;2023-03-25T17:07:24;12.10;99.90
5174;DHT22;2606;50.934;6.934;2023-03-25T17:10:14;11.90;99.90
5174;DHT22;2606;50.934;6.934;2023-03-25T17:12:48;11.90;99.90
5174;DHT22;2606;50.934;6.934;2023-03-25T17:15:24;11.80;99.90
5174;DHT22;2606;50.934;6.934;2023-03-25T17:20:42;11.70;99.90
5174;DHT22;2606;50.934;6.934;2023-03-25T17:26:07;11.60;99.90
5174;DHT22;2606;50.934;6.934;2023-03-25T17:36:42;11.40;99.90
5174;DHT22;2606;50.934;6.934;2023-03-25T17:39:32;11.40;99.90
5174;DHT22;2606;50.934;6.934;2023-03-25T17:42:06;11.30;99.90
5174;DHT22;2606;50.934;6.934;2023-03-25T17:47:17;11.30;99.90
5174;DHT22;2606;50.934;6.934;2023-03-25T17:50:02;11.30;99.90
5174;DHT22;2606;50.934;6.934;2023-03-25T17:52:38;11.30;99.90
5174;DHT22;2606;50.934;6.934;2023-03-25T17:55:07;11.30;99.90
5174;DHT22;2606;50.934;6.934;2023-03-25T17:57:37;11.30;99.90
5174;DHT22;2606;50.934;6.934;2023-03-25T18:00:09;11.30;99.90
5174;DHT22;2606;50.934;6.934;2023-03-25T18:02:39;11.30;99.90
5174;DHT22;2606;50.934;6.934;2023-03-25T18:05:06;11.30;99.90
5174;DHT22;2606;50.934;6.934;2023-03-25T18:07:40;11.30;99.90
5174;DHT22;2606;50.934;6.934;2023-03-25T18:10:26;11.30;99.90
5174;DHT22;2606;50.934;6.934;2023-03-25T18:12:55;11.30;99.90
5174;DHT22;2606;50.934;6.934;2023-03-25T18:15:27;11.10;99.90
5174;DHT22;2606;50.934;6.934;2023-03-25T18:17:59;10.90;99.90
5174;DHT22;2606;50.934;6.934;2023-03-25T18:20:35;10.90;99.90
5174;DHT22;2606;50.934;6.934;2023-03-25T18:23:07;10.80;99.90
5174;DHT22;2606;50.934;6.934;2023-03-25T18:25:41;10.70;99.90
5174;DHT22;2606;50.934;6.934;2023-03-25T18:28:10;10.60;99.90
5174;DHT22;2606;50.934;6.934;2023-03-25T18:31:01;10.40;99.90
5174;DHT22;2606;50.934;6.934;2023-03-25T18:33:37;10.40;99.90
5174;DHT22;2606;50.934;6.934;2023-03-25T18:39:04;10.20;99.90
5174;DHT22;2606;50.934;6.934;2023-03-25T18:41:33;10.10;99.90
5174;DHT22;2606;50.934;6.934;2023-03-25T18:44:14;10.10;99.90
5174;DHT22;2606;50.934;6.934;2023-03-25T18:46:43;10.10;99.90
5174;DHT22;2606;50.934;6.934;2023-03-25T18:49:32;10.10;99.90
5174;DHT22;2606;50.934;6.934;2023-03-25T18:51:58;10.10;99.90
5174;DHT22;2606;50.934;6.934;2023-03-25T18:54:23;10.10;99.90
5174;DHT22;2606;50.934;6.934;2023-03-25T18:56:49;10.10;99.90
5174;DHT22;2606;50.934;6.934;2023-03-25T18:59:16;10.10;99.90
5174;DHT22;2606;50.934;6.934;2023-03-25T19:01:45;10.00;99.90
5174;DHT22;2606;50.934;6.934;2023-03-25T19:04:11;10.00;99.90
5174;DHT22;2606;50.934;6.934;2023-03-25T19:06:59;9.90;99.90
5174;DHT22;2606;50.934;6.934;2023-03-25T19:09:25;9.80;99.90
5174;DHT22;2606;50.934;6.934;2023-03-25T19:12:05;9.80;99.90
5174;DHT22;2606;50.934;6.934;2023-03-25T19:15:12;9.80;99.90
5174;DHT22;2606;50.934;6.934;2023-03-25T19:17:46;9.70;99.90
5174;DHT22;2606;50.934;6.934;2023-03-25T19:20:21;9.70;99.90